createdAt,value
2023-05-04T00:00:27.474Z,7.77
2023-05-04T00:04:28.672Z,7.07
2023-05-04T00:08:30.755Z,7.33
2023-05-04T00:12:31.820Z,7.27
2023-05-04T00:16:34.887Z,7.00
2023-05-04T00:20:36.338Z,7.40
2023-05-04T00:24:38.028Z,6.27
2023-05-04T00:28:39.157Z,8.47
2023-05-04T00:32:40.187Z,8.20
2023-05-04T00:36:42.027Z,7.20
2023-05-04T00:40:43.126Z,6.63
2023-05-04T00:44:44.228Z,7.67
2023-05-04T00:48:48.251Z,7.47
2023-05-04T00:52:50.282Z,7.93
2023-05-04T00:56:51.382Z,7.87
2023-05-04T01:00:52.439Z,8.87
2023-05-04T01:04:53.811Z,7.60
2023-05-04T01:09:01.771Z,8.03
2023-05-04T01:13:14.574Z,8.67
2023-05-04T01:17:15.937Z,7.83
2023-05-04T01:21:17.059Z,7.30
2023-05-04T01:25:18.546Z,7.13
2023-05-04T01:29:29.435Z,7.97
2023-05-04T01:33:31.082Z,6.37
2023-05-04T01:37:32.072Z,11.33
2023-05-04T01:41:33.196Z,7.27
2023-05-04T01:45:34.153Z,7.33
2023-05-04T01:49:35.373Z,7.60
2023-05-04T01:53:36.404Z,9.33
2023-05-04T01:57:37.522Z,8.97
2023-05-04T02:01:38.689Z,7.97
2023-05-04T02:05:40.050Z,7.23
2023-05-04T02:09:41.294Z,8.00
2023-05-04T02:13:42.509Z,8.63
2023-05-04T02:17:43.955Z,7.07
2023-05-04T02:21:45.361Z,7.73
2023-05-04T02:25:46.369Z,7.50
2023-05-04T02:29:47.350Z,7.63
2023-05-04T02:33:50.169Z,7.30
2023-05-04T02:37:51.159Z,8.00
2023-05-04T02:41:52.276Z,7.83
2023-05-04T02:45:53.374Z,7.40
2023-05-04T02:49:54.314Z,11.30
2023-05-04T02:53:55.447Z,10.83
2023-05-04T02:57:56.370Z,12.77
2023-05-04T03:01:57.495Z,11.97
2023-05-04T03:05:58.444Z,13.80
2023-05-04T03:09:59.560Z,12.43
2023-05-04T03:14:00.865Z,10.63
2023-05-04T03:18:01.915Z,10.83
2023-05-04T03:22:03.020Z,10.53
2023-05-04T03:26:04.415Z,10.27
2023-05-04T03:30:06.587Z,10.47
2023-05-04T03:34:09.459Z,8.07
2023-05-04T03:38:10.937Z,7.70
2023-05-04T03:42:12.027Z,8.37
2023-05-04T03:46:13.208Z,9.20
2023-05-04T03:50:14.530Z,11.00
2023-05-04T03:54:15.489Z,10.07
2023-05-04T03:58:16.634Z,9.77
2023-05-04T04:02:17.845Z,10.00
2023-05-04T04:06:18.804Z,8.87
2023-05-04T04:10:19.860Z,8.53
2023-05-04T04:14:20.964Z,9.27
2023-05-04T04:18:23.525Z,10.00
2023-05-04T04:22:25.647Z,10.97
2023-05-04T04:26:27.605Z,10.83
2023-05-04T04:30:28.761Z,10.13
2023-05-04T04:34:29.982Z,11.10
2023-05-04T04:38:30.933Z,9.80
2023-05-04T04:42:32.160Z,9.50
2023-05-04T04:46:33.484Z,11.47
2023-05-04T04:50:39.735Z,10.00
2023-05-04T04:54:40.711Z,9.73
2023-05-04T04:58:41.824Z,11.80
2023-05-04T05:02:43.008Z,9.73
2023-05-04T05:06:44.154Z,9.90
2023-05-04T05:10:45.171Z,8.77
2023-05-04T05:14:46.603Z,10.77
2023-05-04T05:18:47.731Z,10.10
2023-05-04T05:22:48.925Z,11.67
2023-05-04T05:26:51.844Z,10.73
2023-05-04T05:30:52.858Z,9.67
2023-05-04T05:34:53.981Z,11.27
2023-05-04T05:38:55.104Z,10.27
2023-05-04T05:42:56.028Z,9.17
2023-05-04T05:46:57.131Z,10.40
2023-05-04T05:50:58.086Z,8.70
2023-05-04T05:55:01.671Z,7.30
2023-05-04T05:59:02.597Z,11.27
2023-05-04T06:03:03.917Z,8.37
2023-05-04T06:07:04.918Z,9.70
2023-05-04T06:11:06.337Z,9.60
2023-05-04T06:15:08.679Z,8.53
2023-05-04T06:19:10.074Z,8.07
2023-05-04T06:23:11.010Z,8.33
2023-05-04T06:27:12.120Z,8.70
2023-05-04T06:31:13.802Z,9.30
2023-05-04T06:35:15.052Z,12.70
2023-05-04T06:39:16.038Z,7.67
2023-05-04T06:43:17.156Z,6.90
2023-05-04T06:47:18.168Z,7.00
2023-05-04T06:51:20.486Z,7.03
2023-05-04T06:55:21.861Z,7.00
2023-05-04T06:59:22.987Z,10.27
2023-05-04T07:03:24.050Z,8.70
2023-05-04T07:07:25.142Z,7.10
2023-05-04T07:11:27.232Z,7.50
2023-05-04T07:15:28.742Z,7.83
2023-05-04T07:19:29.870Z,7.27
2023-05-04T07:23:30.911Z,7.63
2023-05-04T07:27:32.290Z,7.30
2023-05-04T07:31:34.324Z,7.53
2023-05-04T07:35:35.704Z,8.47
2023-05-04T07:39:38.159Z,8.03
2023-05-04T07:43:39.357Z,8.50
2023-05-04T07:47:40.883Z,8.70
2023-05-04T07:51:41.957Z,10.03
2023-05-04T07:55:43.134Z,8.70
2023-05-04T07:59:44.394Z,8.87
2023-05-04T08:03:45.775Z,8.57
2023-05-04T08:07:47.171Z,7.67
2023-05-04T08:11:48.648Z,7.50
2023-05-04T08:15:49.753Z,8.10
2023-05-04T08:19:50.783Z,7.57
2023-05-04T08:23:52.542Z,8.07
2023-05-04T08:27:53.717Z,8.73
2023-05-04T08:31:57.129Z,9.03
2023-05-04T08:35:58.379Z,10.10
2023-05-04T08:39:59.439Z,10.87
2023-05-04T08:44:00.686Z,10.60
2023-05-04T08:48:01.757Z,10.63
2023-05-04T08:52:06.738Z,9.47
2023-05-04T08:56:09.376Z,10.40
2023-05-04T09:00:16.087Z,9.43
2023-05-04T09:04:18.183Z,9.23
2023-05-04T09:08:20.445Z,9.60
2023-05-04T09:12:21.622Z,10.23
2023-05-04T09:16:22.791Z,10.40
2023-05-04T09:20:25.192Z,10.37
2023-05-04T09:24:30.122Z,11.27
2023-05-04T09:28:36.237Z,13.67
2023-05-04T09:32:47.863Z,12.47
2023-05-04T09:37:01.163Z,11.63
2023-05-04T09:41:02.335Z,13.73
2023-05-04T09:45:05.653Z,12.77
2023-05-04T09:49:07.304Z,13.03
2023-05-04T09:53:09.138Z,11.63
2023-05-04T09:57:16.440Z,12.07
2023-05-04T10:01:18.020Z,9.90
2023-05-04T10:05:20.982Z,11.37
2023-05-04T10:09:22.966Z,10.30
2023-05-04T10:13:25.923Z,10.37
2023-05-04T10:17:39.850Z,11.20
2023-05-04T10:21:47.762Z,10.83
2023-05-04T10:25:55.342Z,13.03
2023-05-04T10:29:56.669Z,12.30
2023-05-04T10:33:57.953Z,11.33
2023-05-04T10:37:59.457Z,11.73
2023-05-04T10:42:06.324Z,10.90
2023-05-04T10:46:20.921Z,12.33
2023-05-04T10:50:22.158Z,11.67
2023-05-04T10:54:23.312Z,9.53
2023-05-04T10:58:28.551Z,9.30
2023-05-04T11:02:31.768Z,9.97
2023-05-04T11:06:32.728Z,9.20
2023-05-04T11:10:33.824Z,11.10
2023-05-04T11:14:36.919Z,8.37
2023-05-04T11:18:40.476Z,9.23
2023-05-04T11:22:41.785Z,9.30
2023-05-04T11:26:49.017Z,8.90
2023-05-04T11:30:50.303Z,8.10
2023-05-04T11:34:51.264Z,9.50
2023-05-04T11:38:55.894Z,9.70
2023-05-04T11:42:58.889Z,9.27
2023-05-04T11:47:00.042Z,7.90
2023-05-04T11:51:04.752Z,10.20
2023-05-04T11:55:15.040Z,6.90
2023-05-04T11:59:16.158Z,7.33
2023-05-04T12:03:32.563Z,7.73
2023-05-04T12:07:29.115Z,7.37
2023-05-04T12:11:30.384Z,6.43
2023-05-04T12:15:34.291Z,6.13
2023-05-04T12:19:39.285Z,6.80
2023-05-04T12:23:41.252Z,6.57
2023-05-04T12:27:45.460Z,8.07
2023-05-04T12:31:46.700Z,5.67
2023-05-04T12:35:48.021Z,6.80
2023-05-04T12:39:49.036Z,6.83
2023-05-04T12:43:50.227Z,4.60
2023-05-04T12:47:51.220Z,7.83
2023-05-04T12:51:52.396Z,5.67
2023-05-04T12:55:53.842Z,6.87
2023-05-04T12:59:54.885Z,6.47
2023-05-04T13:03:56.369Z,5.77
2023-05-04T13:07:57.746Z,5.43
2023-05-04T13:11:58.828Z,4.70
2023-05-04T13:16:00.031Z,5.33
2023-05-04T13:20:01.621Z,5.73
2023-05-04T13:24:02.816Z,5.37
2023-05-04T13:28:03.862Z,4.93
2023-05-04T13:32:05.831Z,4.93
2023-05-04T13:36:07.060Z,4.80
2023-05-04T13:40:08.893Z,5.30
2023-05-04T13:44:09.840Z,5.33
2023-05-04T13:48:11.026Z,6.83
2023-05-04T13:52:12.956Z,5.47
2023-05-04T13:56:14.262Z,5.27
2023-05-04T14:00:17.851Z,7.23
2023-05-04T14:04:19.168Z,5.67
2023-05-04T14:08:20.287Z,5.10
2023-05-04T14:12:21.551Z,5.53
2023-05-04T14:16:22.778Z,6.53
2023-05-04T14:20:23.873Z,6.73
2023-05-04T14:24:25.485Z,5.80
2023-05-04T14:28:26.433Z,6.17
2023-05-04T14:32:27.633Z,5.13
2023-05-04T14:36:28.732Z,4.90
2023-05-04T14:40:30.257Z,5.90
2023-05-04T14:44:31.354Z,6.43
2023-05-04T14:48:32.322Z,5.07
2023-05-04T14:52:33.578Z,5.03
2023-05-04T14:56:34.708Z,6.10
2023-05-04T15:00:37.469Z,4.67
2023-05-04T15:04:38.484Z,5.53
2023-05-04T15:08:39.492Z,3.93
2023-05-04T15:12:40.690Z,5.40
2023-05-04T15:16:41.842Z,7.33
2023-05-04T15:20:42.925Z,7.73
2023-05-04T15:24:44.047Z,5.53
2023-05-04T15:28:45.085Z,6.47
2023-05-04T15:32:46.092Z,5.47
2023-05-04T15:36:47.030Z,6.43
2023-05-04T15:40:48.140Z,8.43
2023-05-04T15:44:49.146Z,5.33
2023-05-04T15:48:50.260Z,5.27
2023-05-04T15:52:52.262Z,5.17
2023-05-04T15:56:53.403Z,5.17
2023-05-04T16:00:54.640Z,5.90
2023-05-04T16:04:55.678Z,7.73
2023-05-04T16:08:56.882Z,6.60
2023-05-04T16:12:59.872Z,5.67
2023-05-04T16:17:01.575Z,8.20
2023-05-04T16:21:03.002Z,5.70
2023-05-04T16:25:04.739Z,5.17
2023-05-04T16:29:06.179Z,9.13
2023-05-04T16:33:07.304Z,6.90
2023-05-04T16:37:10.821Z,5.03
2023-05-04T16:41:11.546Z,5.00
2023-05-04T16:45:13.194Z,4.40
2023-05-04T16:49:14.879Z,5.20
2023-05-04T16:53:16.366Z,5.33
2023-05-04T16:57:17.386Z,6.87
2023-05-04T17:01:18.404Z,4.60
2023-05-04T17:05:20.047Z,4.97
2023-05-04T17:09:21.218Z,5.03
2023-05-04T17:13:22.416Z,4.10
2023-05-04T17:17:23.485Z,6.07
2023-05-04T17:21:24.676Z,4.90
2023-05-04T17:25:26.530Z,20.03
2023-05-04T17:29:27.622Z,4.57
2023-05-04T17:33:28.896Z,5.00
2023-05-04T17:37:30.129Z,5.70
2023-05-04T17:41:31.150Z,3.83
2023-05-04T17:45:33.485Z,5.80
2023-05-04T17:49:34.603Z,4.40
2023-05-04T17:53:35.613Z,5.10
2023-05-04T17:57:36.731Z,4.80
2023-05-04T18:01:38.243Z,5.20
2023-05-04T18:05:42.529Z,5.47
2023-05-04T18:09:43.713Z,4.03
2023-05-04T18:13:44.711Z,5.13
2023-05-04T18:17:46.017Z,4.33
2023-05-04T18:21:47.057Z,4.03
2023-05-04T18:25:48.215Z,4.83
2023-05-04T18:29:49.224Z,10.57
2023-05-04T18:33:50.380Z,5.50
2023-05-04T18:37:51.503Z,4.53
2023-05-04T18:41:52.603Z,8.73
2023-05-04T18:45:54.015Z,4.97
2023-05-04T18:49:55.758Z,4.77
2023-05-04T18:53:56.942Z,5.00
2023-05-04T18:58:00.534Z,5.67
2023-05-04T19:02:01.920Z,6.47
2023-05-04T19:06:03.245Z,7.00
2023-05-04T19:10:05.868Z,8.38
2023-05-04T19:14:06.983Z,5.83
2023-05-04T19:18:08.605Z,4.87
2023-05-04T19:22:11.157Z,5.37
2023-05-04T19:26:12.407Z,5.20
2023-05-04T19:30:13.890Z,5.83
2023-05-04T19:34:17.457Z,6.17
2023-05-04T19:38:17.743Z,6.63
2023-05-04T19:42:18.783Z,4.60
2023-05-04T19:46:20.780Z,7.40
2023-05-04T19:50:21.958Z,7.30
2023-05-04T19:54:23.080Z,7.87
2023-05-04T19:58:27.903Z,6.90
2023-05-04T20:02:29.303Z,7.97
2023-05-04T20:06:31.256Z,10.60
2023-05-04T20:10:32.274Z,9.27
2023-05-04T20:14:33.965Z,10.43
2023-05-04T20:18:35.572Z,8.73
2023-05-04T20:22:37.722Z,8.40
2023-05-04T20:26:39.369Z,9.00
2023-05-04T20:30:40.469Z,8.10
2023-05-04T20:34:42.558Z,8.37
2023-05-04T20:38:43.829Z,11.03
2023-05-04T20:42:45.038Z,7.87
2023-05-04T20:46:46.103Z,7.27
2023-05-04T20:50:47.103Z,6.93
2023-05-04T20:54:48.328Z,6.57
2023-05-04T20:58:49.998Z,7.17
2023-05-04T21:02:51.222Z,7.07
2023-05-04T21:06:52.626Z,10.93
2023-05-04T21:10:53.771Z,7.07
2023-05-04T21:14:54.996Z,7.17
2023-05-04T21:18:56.080Z,6.67
2023-05-04T21:22:57.505Z,9.50
2023-05-04T21:26:59.231Z,8.90
2023-05-04T21:31:00.543Z,8.53
2023-05-04T21:35:03.417Z,7.47
2023-05-04T21:39:04.351Z,8.03
2023-05-04T21:43:05.468Z,7.33
2023-05-04T21:47:06.632Z,11.53
2023-05-04T21:51:07.625Z,6.67
2023-05-04T21:55:08.983Z,6.13
2023-05-04T21:59:10.161Z,6.83
2023-05-04T22:03:11.114Z,4.77
2023-05-04T22:07:12.423Z,5.53
2023-05-04T22:11:13.871Z,5.10
2023-05-04T22:15:15.191Z,5.10
2023-05-04T22:19:16.166Z,7.03
2023-05-04T22:23:17.452Z,4.60
2023-05-04T22:27:18.516Z,5.40
2023-05-04T22:31:19.654Z,5.23
2023-05-04T22:35:20.930Z,4.40
2023-05-04T22:39:22.023Z,7.53
2023-05-04T22:43:23.238Z,4.97
2023-05-04T22:47:25.143Z,5.13
2023-05-04T22:51:26.769Z,5.90
2023-05-04T22:55:28.164Z,4.47
2023-05-04T22:59:30.766Z,4.53
2023-05-04T23:03:32.067Z,6.63
2023-05-04T23:07:33.226Z,4.67
2023-05-04T23:11:34.541Z,5.17
2023-05-04T23:15:35.693Z,4.87
2023-05-04T23:19:36.891Z,5.27
2023-05-04T23:23:38.047Z,4.63
2023-05-04T23:27:39.027Z,4.33
2023-05-04T23:31:40.226Z,6.20
2023-05-04T23:35:41.178Z,4.63
2023-05-04T23:39:45.547Z,6.70
2023-05-04T23:43:46.665Z,7.13
2023-05-04T23:47:47.790Z,4.30
2023-05-04T23:51:48.958Z,5.53
2023-05-04T23:55:59.724Z,4.40
